createdAt,value
2019-06-09T00:01:48.502Z,64.48
2019-06-09T00:04:34.002Z,64.27
2019-06-09T00:07:21.676Z,63.95
2019-06-09T00:10:11.210Z,64.14
2019-06-09T00:12:57.779Z,64.00
2019-06-09T00:15:44.386Z,64.00
2019-06-09T00:18:31.688Z,63.83
2019-06-09T00:21:19.724Z,63.72
2019-06-09T00:24:09.436Z,63.68
2019-06-09T00:26:57.363Z,63.90
2019-06-09T00:29:42.723Z,64.12
2019-06-09T00:32:30.700Z,64.18
2019-06-09T00:35:18.053Z,64.33
2019-06-09T00:38:05.175Z,64.47
2019-06-09T00:40:52.546Z,64.61
2019-06-09T00:43:40.460Z,64.78
2019-06-09T00:46:27.889Z,64.90
2019-06-09T00:49:17.484Z,65.01
2019-06-09T00:52:04.492Z,65.25
2019-06-09T00:54:50.823Z,65.12
2019-06-09T00:57:38.720Z,65.12
2019-06-09T01:00:27.573Z,65.19
2019-06-09T01:03:14.142Z,65.37
2019-06-09T01:06:01.020Z,65.66
2019-06-09T01:08:48.558Z,65.73
2019-06-09T01:11:37.563Z,65.62
2019-06-09T01:14:23.383Z,65.82
2019-06-09T01:17:12.462Z,65.81
2019-06-09T01:19:58.324Z,65.78
2019-06-09T01:22:47.989Z,65.63
2019-06-09T01:25:33.709Z,65.81
2019-06-09T01:28:22.131Z,66.03
2019-06-09T01:31:09.769Z,65.91
2019-06-09T01:33:57.274Z,65.93
2019-06-09T01:36:43.490Z,66.10
2019-06-09T01:39:30.945Z,65.97
2019-06-09T01:42:20.663Z,65.61
2019-06-09T01:45:07.568Z,65.75
2019-06-09T01:47:53.366Z,65.45
2019-06-09T01:50:40.985Z,64.91
2019-06-09T01:53:28.542Z,65.01
2019-06-09T01:56:18.623Z,64.91
2019-06-09T01:59:02.940Z,64.61
2019-06-09T02:01:50.347Z,64.49
2019-06-09T02:04:38.420Z,64.32
2019-06-09T02:07:27.355Z,64.21
2019-06-09T02:10:14.246Z,64.39
2019-06-09T02:13:01.221Z,64.45
2019-06-09T02:15:49.188Z,64.38
2019-06-09T02:18:37.691Z,64.44
2019-06-09T02:21:24.271Z,64.46
2019-06-09T02:24:11.783Z,64.79
2019-06-09T02:26:59.139Z,64.79
2019-06-09T02:29:47.494Z,64.93
2019-06-09T02:32:37.731Z,65.09
2019-06-09T02:35:29.070Z,65.38
2019-06-09T02:38:12.494Z,65.54
2019-06-09T02:40:57.693Z,65.67
2019-06-09T02:43:45.281Z,66.08
2019-06-09T02:46:55.075Z,66.11
2019-06-09T02:49:45.465Z,66.26
2019-06-09T02:52:33.770Z,66.26
2019-06-09T02:55:15.901Z,66.25
2019-06-09T02:58:03.404Z,66.38
2019-06-09T03:00:54.116Z,66.32
2019-06-09T03:03:59.167Z,66.42
2019-06-09T03:06:30.852Z,66.47
2019-06-09T03:09:14.043Z,66.77
2019-06-09T03:12:02.516Z,66.89
2019-06-09T03:14:52.590Z,66.92
2019-06-09T03:17:40.781Z,66.88
2019-06-09T03:20:30.103Z,67.05
2019-06-09T03:23:12.341Z,67.37
2019-06-09T03:26:02.746Z,67.53
2019-06-09T03:28:47.884Z,67.90
2019-06-09T03:32:04.170Z,67.85
2019-06-09T03:39:57.797Z,68.15
2019-06-09T03:42:45.692Z,68.14
2019-06-09T03:45:39.488Z,68.19
2019-06-09T03:48:23.193Z,68.14
2019-06-09T03:51:08.447Z,67.87
2019-06-09T03:53:58.205Z,67.88
2019-06-09T03:56:46.082Z,67.97
2019-06-09T03:59:42.656Z,67.96
2019-06-09T04:02:24.743Z,68.03
2019-06-09T04:05:12.250Z,68.10
2019-06-09T04:07:57.537Z,67.96
2019-06-09T04:10:45.387Z,67.71
2019-06-09T04:13:40.136Z,67.54
2019-06-09T04:16:23.705Z,67.44
2019-06-09T04:19:07.416Z,67.57
2019-06-09T04:21:54.827Z,67.47
2019-06-09T04:24:44.125Z,67.34
2019-06-09T04:27:40.681Z,67.42
2019-06-09T04:30:23.393Z,67.35
2019-06-09T04:33:06.288Z,67.61
2019-06-09T04:38:45.367Z,67.13
2019-06-09T04:41:35.212Z,66.94
2019-06-09T04:44:18.329Z,67.09
2019-06-09T04:47:11.585Z,67.00
2019-06-09T04:49:55.480Z,66.50
2019-06-09T04:52:46.273Z,66.16
2019-06-09T04:55:36.066Z,65.79
2019-06-09T04:58:24.373Z,65.16
2019-06-09T05:01:05.825Z,64.69
2019-06-09T05:03:53.255Z,64.71
2019-06-09T05:07:00.109Z,64.58
2019-06-09T05:09:29.860Z,64.51
2019-06-09T05:12:15.389Z,64.03
2019-06-09T05:15:03.122Z,64.01
2019-06-09T05:17:53.740Z,63.69
2019-06-09T05:20:42.541Z,63.39
2019-06-09T05:23:26.943Z,63.13
2019-06-09T05:26:14.420Z,62.85
2019-06-09T05:29:02.444Z,63.10
2019-06-09T05:31:51.582Z,62.97
2019-06-09T05:34:38.807Z,62.84
2019-06-09T05:37:27.185Z,62.63
2019-06-09T05:40:12.132Z,62.23
2019-06-09T05:43:01.335Z,61.41
2019-06-09T05:45:47.372Z,61.59
2019-06-09T05:48:36.626Z,61.45
2019-06-09T05:51:22.883Z,61.15
2019-06-09T05:54:10.944Z,60.21
2019-06-09T05:56:57.781Z,60.37
2019-06-09T05:59:45.130Z,59.86
2019-06-09T06:02:34.190Z,59.87
2019-06-09T06:05:21.542Z,59.28
2019-06-09T06:08:07.311Z,59.13
2019-06-09T06:10:54.575Z,58.76
2019-06-09T06:13:44.967Z,58.44
2019-06-09T06:16:31.819Z,57.22
2019-06-09T06:19:17.649Z,57.67
2019-06-09T06:22:05.483Z,56.91
2019-06-09T06:24:52.846Z,57.94
2019-06-09T06:27:42.653Z,57.72
2019-06-09T06:30:30.580Z,58.09
2019-06-09T06:33:16.261Z,58.50
2019-06-09T06:36:03.992Z,58.82
2019-06-09T06:38:51.794Z,57.54
2019-06-09T06:41:42.135Z,57.88
2019-06-09T06:44:26.214Z,57.10
2019-06-09T06:47:16.153Z,56.72
2019-06-09T06:50:02.143Z,56.58
2019-06-09T06:52:51.559Z,56.86
2019-06-09T06:55:37.291Z,58.16
2019-06-09T06:58:24.715Z,57.87
2019-06-09T07:01:12.017Z,56.41
2019-06-09T07:04:01.659Z,54.30
2019-06-09T07:06:48.296Z,55.19
2019-06-09T07:09:34.480Z,54.07
2019-06-09T07:12:21.861Z,54.21
2019-06-09T07:15:10.948Z,54.67
2019-06-09T07:17:57.400Z,53.45
2019-06-09T07:20:46.335Z,53.02
2019-06-09T07:23:32.115Z,53.69
2019-06-09T07:26:21.135Z,54.14
2019-06-09T07:29:07.504Z,52.97
2019-06-09T07:31:55.624Z,53.87
2019-06-09T07:34:45.291Z,52.41
2019-06-09T07:37:32.073Z,52.93
2019-06-09T07:40:20.880Z,53.22
2019-06-09T07:43:05.687Z,51.19
2019-06-09T07:45:58.334Z,51.63
2019-06-09T07:48:41.808Z,49.98
2019-06-09T07:51:27.631Z,50.63
2019-06-09T07:54:14.983Z,50.71
2019-06-09T07:57:02.899Z,51.61
2019-06-09T07:59:53.334Z,51.09
2019-06-09T08:02:37.891Z,50.40
2019-06-09T08:05:25.452Z,48.97
2019-06-09T08:08:33.591Z,47.59
2019-06-09T08:11:01.061Z,48.05
2019-06-09T08:13:48.263Z,47.06
2019-06-09T08:16:36.179Z,45.31
2019-06-09T08:19:23.710Z,46.30
2019-06-09T08:22:11.254Z,45.02
2019-06-09T08:25:11.601Z,44.91
2019-06-09T08:28:01.286Z,44.77
2019-06-09T08:30:47.251Z,45.04
2019-06-09T08:33:34.327Z,43.69
2019-06-09T08:36:21.860Z,42.99
2019-06-09T08:39:12.733Z,42.62
2019-06-09T08:41:57.311Z,42.82
2019-06-09T08:44:45.382Z,41.13
2019-06-09T08:47:31.935Z,41.69
2019-06-09T08:50:21.556Z,43.09
2019-06-09T08:53:07.297Z,42.49
2019-06-09T08:55:55.911Z,42.38
2019-06-09T08:58:41.991Z,42.20
2019-06-09T09:01:31.678Z,40.27
2019-06-09T09:04:16.420Z,39.95
2019-06-09T09:07:04.084Z,39.62
2019-06-09T09:09:54.395Z,39.71
2019-06-09T09:12:40.805Z,40.60
2019-06-09T09:15:27.508Z,39.45
2019-06-09T09:18:14.825Z,39.32
2019-06-09T09:21:02.405Z,39.12
2019-06-09T09:24:17.180Z,39.96
2019-06-09T09:26:37.684Z,38.73
2019-06-09T09:29:25.710Z,38.28
2019-06-09T09:32:13.494Z,38.14
2019-06-09T09:35:00.750Z,38.17
2019-06-09T09:37:50.158Z,37.50
2019-06-09T09:40:35.543Z,37.70
2019-06-09T09:43:22.923Z,38.76
2019-06-09T09:46:11.157Z,38.42
2019-06-09T09:49:00.699Z,36.98
2019-06-09T09:51:46.823Z,37.81
2019-06-09T09:54:33.386Z,37.47
2019-06-09T09:57:21.270Z,37.98
2019-06-09T10:00:10.781Z,37.61
2019-06-09T10:02:59.373Z,37.24
2019-06-09T10:05:44.284Z,37.98
2019-06-09T10:08:32.581Z,38.39
2019-06-09T10:11:19.509Z,37.46
2019-06-09T10:14:06.884Z,36.91
2019-06-09T10:16:56.398Z,37.11
2019-06-09T10:19:42.000Z,37.22
2019-06-09T10:22:31.587Z,36.78
2019-06-09T10:25:19.646Z,37.68
2019-06-09T10:28:04.527Z,34.45
2019-06-09T10:30:56.007Z,34.63
2019-06-09T10:33:40.154Z,32.94
2019-06-09T10:36:27.648Z,34.33
2019-06-09T10:39:15.727Z,34.05
2019-06-09T10:42:04.095Z,33.22
2019-06-09T10:44:55.131Z,34.00
2019-06-09T10:47:41.755Z,34.02
2019-06-09T10:50:30.954Z,34.32
2019-06-09T10:53:16.304Z,35.76
2019-06-09T10:56:06.169Z,34.57
2019-06-09T10:58:51.596Z,34.02
2019-06-09T11:01:40.869Z,33.43
2019-06-09T11:04:26.009Z,33.82
2019-06-09T11:07:13.456Z,34.55
2019-06-09T11:10:16.668Z,34.23
2019-06-09T11:12:51.130Z,32.32
2019-06-09T11:15:39.139Z,31.82
2019-06-09T11:18:23.976Z,32.18
2019-06-09T11:21:11.883Z,32.46
2019-06-09T11:24:03.275Z,31.34
2019-06-09T11:26:46.866Z,29.78
2019-06-09T11:29:34.845Z,30.91
2019-06-09T11:32:22.144Z,32.53
2019-06-09T11:35:11.024Z,30.87
2019-06-09T11:38:03.589Z,29.69
2019-06-09T11:40:52.126Z,31.62
2019-06-09T11:43:38.590Z,30.51
2019-06-09T11:46:25.573Z,30.12
2019-06-09T11:49:13.362Z,29.11
2019-06-09T11:52:05.499Z,30.72
2019-06-09T11:54:48.196Z,32.13
2019-06-09T11:57:35.625Z,30.14
2019-06-09T12:00:23.093Z,28.15
2019-06-09T12:03:10.947Z,28.14
2019-06-09T12:05:59.783Z,29.05
2019-06-09T12:08:45.440Z,30.30
2019-06-09T12:11:33.016Z,30.24
2019-06-09T12:14:21.968Z,29.22
2019-06-09T12:17:07.905Z,29.29
2019-06-09T12:19:56.189Z,30.22
2019-06-09T12:22:42.897Z,29.37
2019-06-09T12:25:30.367Z,27.62
2019-06-09T12:28:17.755Z,29.94
2019-06-09T12:31:07.297Z,28.11
2019-06-09T12:33:52.859Z,28.28
2019-06-09T12:36:42.133Z,29.39
2019-06-09T12:39:27.617Z,27.84
2019-06-09T12:42:14.996Z,28.94
2019-06-09T12:45:04.576Z,27.45
2019-06-09T12:47:50.992Z,28.77
2019-06-09T12:50:37.523Z,27.49
2019-06-09T12:53:25.007Z,27.91
2019-06-09T12:56:13.638Z,29.14
2019-06-09T12:59:01.177Z,27.67
2019-06-09T13:01:47.486Z,27.25
2019-06-09T13:04:35.277Z,28.39
2019-06-09T13:07:22.575Z,27.64
2019-06-09T13:10:10.305Z,25.72
2019-06-09T13:12:57.535Z,27.39
2019-06-09T13:15:45.674Z,25.86
2019-06-09T13:18:33.666Z,25.40
2019-06-09T13:21:21.435Z,25.30
2019-06-09T13:24:09.140Z,24.98
2019-06-09T13:26:57.034Z,25.02
2019-06-09T13:29:44.323Z,25.93
2019-06-09T13:32:31.685Z,25.85
2019-06-09T13:35:19.208Z,26.95
2019-06-09T13:38:07.883Z,27.72
2019-06-09T13:40:54.227Z,27.61
2019-06-09T13:43:42.164Z,28.62
2019-06-09T13:46:31.108Z,26.55
2019-06-09T13:49:17.399Z,25.86
2019-06-09T13:52:04.885Z,25.26
2019-06-09T13:54:52.287Z,24.33
2019-06-09T13:57:44.081Z,24.88
2019-06-09T14:00:28.308Z,26.62
2019-06-09T14:03:17.483Z,27.27
2019-06-09T14:06:04.561Z,26.68
2019-06-09T14:08:51.156Z,25.65
2019-06-09T14:11:42.065Z,26.55
2019-06-09T14:14:27.326Z,26.01
2019-06-09T14:17:15.787Z,27.53
2019-06-09T14:20:01.822Z,28.33
2019-06-09T14:22:49.217Z,29.77
2019-06-09T14:25:37.696Z,29.69
2019-06-09T14:28:24.901Z,29.32
2019-06-09T14:31:14.673Z,31.54
2019-06-09T14:34:03.261Z,31.76
2019-06-09T14:36:47.709Z,32.21
2019-06-09T14:39:35.055Z,32.33
2019-06-09T14:42:36.876Z,32.83
2019-06-09T14:45:13.228Z,32.40
2019-06-09T14:47:57.902Z,30.57
2019-06-09T14:50:45.509Z,30.32
2019-06-09T14:53:33.231Z,30.66
2019-06-09T14:56:22.356Z,31.22
2019-06-09T14:59:09.818Z,30.46
2019-06-09T15:01:55.946Z,30.28
2019-06-09T15:04:43.394Z,31.66
2019-06-09T15:07:31.556Z,29.68
2019-06-09T15:10:19.512Z,29.79
2019-06-09T15:13:06.171Z,29.76
2019-06-09T15:15:53.752Z,28.97
2019-06-09T15:18:41.230Z,29.75
2019-06-09T15:21:31.093Z,29.08
2019-06-09T15:24:18.318Z,27.70
2019-06-09T15:27:04.917Z,27.25
2019-06-09T15:29:52.447Z,27.11
2019-06-09T15:32:39.825Z,25.90
2019-06-09T15:35:27.744Z,25.02
2019-06-09T15:38:15.786Z,24.21
2019-06-09T15:41:03.180Z,22.96
2019-06-09T15:43:51.234Z,22.10
2019-06-09T15:46:38.345Z,21.54
2019-06-09T15:49:25.673Z,21.51
2019-06-09T15:52:14.063Z,21.20
2019-06-09T15:55:01.697Z,21.31
2019-06-09T15:57:48.065Z,21.31
2019-06-09T16:00:41.350Z,21.20
2019-06-09T16:03:26.544Z,22.23
2019-06-09T16:06:15.480Z,23.11
2019-06-09T16:09:02.649Z,22.50
2019-06-09T16:11:51.316Z,23.64
2019-06-09T16:14:41.161Z,24.86
2019-06-09T16:17:41.582Z,25.76
2019-06-09T16:20:31.723Z,26.72
2019-06-09T16:23:17.306Z,27.38
2019-06-09T16:26:03.976Z,28.74
2019-06-09T16:28:51.282Z,30.72
2019-06-09T16:31:40.810Z,31.90
2019-06-09T16:34:27.952Z,32.14
2019-06-09T16:37:14.425Z,32.17
2019-06-09T16:40:01.894Z,33.67
2019-06-09T16:42:52.903Z,33.53
2019-06-09T16:45:39.554Z,32.91
2019-06-09T16:48:26.410Z,31.80
2019-06-09T16:51:15.640Z,30.68
2019-06-09T16:54:01.225Z,29.71
2019-06-09T16:56:47.688Z,28.25
2019-06-09T16:59:35.652Z,28.65
2019-06-09T17:02:26.052Z,29.35
2019-06-09T17:05:11.220Z,30.08
2019-06-09T17:08:21.777Z,30.32
2019-06-09T17:11:07.404Z,31.08
2019-06-09T17:14:00.452Z,32.09
2019-06-09T17:16:43.174Z,32.88
2019-06-09T17:19:36.612Z,33.56
2019-06-09T17:22:18.388Z,34.28
2019-06-09T17:25:05.944Z,33.99
2019-06-09T17:27:53.801Z,34.10
2019-06-09T17:30:41.537Z,34.50
2019-06-09T17:33:32.689Z,34.88
2019-06-09T17:36:16.330Z,34.65
2019-06-09T17:39:05.054Z,35.40
2019-06-09T17:41:52.910Z,35.17
2019-06-09T17:44:40.889Z,36.07
2019-06-09T17:47:29.210Z,37.11
2019-06-09T17:50:15.805Z,37.48
2019-06-09T17:53:03.912Z,37.48
2019-06-09T17:55:52.246Z,38.40
2019-06-09T17:58:41.721Z,38.70
2019-06-09T18:01:27.088Z,38.30
2019-06-09T18:04:14.486Z,37.96
2019-06-09T18:07:02.480Z,37.65
2019-06-09T18:09:52.494Z,37.07
2019-06-09T18:12:39.509Z,36.83
2019-06-09T18:15:26.406Z,37.65
2019-06-09T18:18:13.046Z,38.33
2019-06-09T18:21:01.539Z,38.82
2019-06-09T18:23:51.387Z,38.30
2019-06-09T18:26:37.802Z,37.72
2019-06-09T18:29:24.444Z,37.35
2019-06-09T18:32:12.216Z,37.28
2019-06-09T18:35:01.160Z,37.74
2019-06-09T18:37:47.218Z,36.80
2019-06-09T18:40:37.296Z,37.19
2019-06-09T18:43:23.778Z,35.89
2019-06-09T18:46:11.448Z,36.11
2019-06-09T18:49:01.986Z,36.81
2019-06-09T18:51:46.591Z,37.81
2019-06-09T18:54:34.319Z,38.80
2019-06-09T18:57:22.088Z,39.68
2019-06-09T19:00:11.207Z,40.43
2019-06-09T19:02:57.116Z,41.18
2019-06-09T19:05:44.869Z,42.02
2019-06-09T19:08:33.254Z,42.97
2019-06-09T19:11:21.430Z,43.62
2019-06-09T19:14:10.916Z,44.56
2019-06-09T19:16:56.665Z,44.71
2019-06-09T19:19:44.257Z,45.65
2019-06-09T19:22:33.453Z,45.71
2019-06-09T19:25:21.176Z,45.73
2019-06-09T19:28:07.070Z,46.02
2019-06-09T19:30:56.755Z,46.13
2019-06-09T19:33:44.600Z,46.30
2019-06-09T19:36:31.907Z,46.48
2019-06-09T19:39:17.240Z,46.54
2019-06-09T19:42:05.244Z,46.66
2019-06-09T19:44:52.772Z,46.81
2019-06-09T19:47:44.841Z,46.98
2019-06-09T19:50:27.835Z,47.35
2019-06-09T19:53:15.583Z,47.73
2019-06-09T19:56:03.306Z,48.08
2019-06-09T19:58:51.156Z,48.49
2019-06-09T20:01:39.757Z,48.45
2019-06-09T20:04:26.132Z,48.39
2019-06-09T20:07:14.031Z,48.27
2019-06-09T20:10:01.716Z,47.97
2019-06-09T20:12:51.595Z,48.08
2019-06-09T20:15:38.167Z,47.92
2019-06-09T20:18:24.726Z,47.96
2019-06-09T20:21:12.078Z,47.93
2019-06-09T20:24:01.419Z,47.96
2019-06-09T20:26:51.667Z,48.17
2019-06-09T20:29:34.581Z,48.42
2019-06-09T20:32:22.359Z,48.58
2019-06-09T20:35:10.703Z,48.62
2019-06-09T20:37:57.122Z,48.88
2019-06-09T20:40:49.340Z,48.87
2019-06-09T20:43:34.266Z,48.82
2019-06-09T20:46:21.801Z,49.08
2019-06-09T20:49:07.106Z,49.06
2019-06-09T20:51:54.757Z,49.23
2019-06-09T20:54:46.213Z,49.34
2019-06-09T20:57:31.329Z,49.42
2019-06-09T21:00:20.779Z,49.74
2019-06-09T21:03:06.801Z,50.04
2019-06-09T21:05:55.226Z,50.20
2019-06-09T21:08:42.725Z,50.52
2019-06-09T21:11:31.596Z,50.87
2019-06-09T21:14:16.847Z,51.10
2019-06-09T21:17:04.483Z,51.49
2019-06-09T21:19:56.568Z,51.42
2019-06-09T21:22:42.748Z,51.28
2019-06-09T21:25:28.749Z,51.29
2019-06-09T21:28:16.156Z,51.39
2019-06-09T21:31:06.567Z,50.87
2019-06-09T21:33:54.186Z,50.62
2019-06-09T21:36:43.460Z,50.36
2019-06-09T21:39:30.867Z,50.05
2019-06-09T21:42:17.766Z,50.04
2019-06-09T21:45:05.309Z,50.08
2019-06-09T21:47:53.812Z,50.05
2019-06-09T21:50:41.232Z,50.07
2019-06-09T21:53:28.204Z,50.43
2019-06-09T21:56:15.597Z,50.51
2019-06-09T21:59:03.589Z,50.80
2019-06-09T22:01:55.147Z,50.72
2019-06-09T22:04:40.736Z,50.77
2019-06-09T22:07:26.880Z,50.55
2019-06-09T22:10:14.622Z,50.54
2019-06-09T22:13:02.237Z,50.53
2019-06-09T22:15:54.184Z,50.06
2019-06-09T22:18:37.330Z,49.98
2019-06-09T22:21:24.689Z,50.04
2019-06-09T22:24:12.706Z,49.79
2019-06-09T22:27:01.774Z,49.86
2019-06-09T22:29:48.975Z,49.93
2019-06-09T22:32:35.840Z,49.92
2019-06-09T22:35:23.227Z,49.87
2019-06-09T22:38:11.440Z,50.01
2019-06-09T22:40:59.652Z,50.07
2019-06-09T22:43:46.278Z,49.98
2019-06-09T22:46:33.929Z,49.87
2019-06-09T22:49:21.353Z,49.90
2019-06-09T22:52:10.907Z,50.02
2019-06-09T22:54:58.093Z,50.22
2019-06-09T22:57:44.654Z,50.50
2019-06-09T23:00:32.109Z,50.84
2019-06-09T23:03:20.021Z,51.21
2019-06-09T23:06:07.432Z,51.43
2019-06-09T23:08:55.313Z,51.61
2019-06-09T23:11:42.799Z,51.70
2019-06-09T23:14:30.762Z,52.02
2019-06-09T23:17:22.623Z,52.10
2019-06-09T23:20:06.606Z,52.16
2019-06-09T23:22:54.525Z,52.23
2019-06-09T23:25:41.799Z,52.44
2019-06-09T23:28:31.277Z,52.51
2019-06-09T23:31:16.595Z,52.61
2019-06-09T23:34:04.786Z,52.75
2019-06-09T23:36:53.385Z,52.80
2019-06-09T23:39:41.455Z,52.89
2019-06-09T23:42:27.579Z,52.94
2019-06-09T23:45:15.331Z,53.00
2019-06-09T23:48:04.283Z,52.90
2019-06-09T23:50:51.597Z,52.81
2019-06-09T23:53:41.052Z,52.72
2019-06-09T23:56:26.501Z,52.81
2019-06-09T23:59:14.083Z,52.78
